Time;durP1;ratioP1;P1;durP2;ratioP2;P2;SDS_P1;SDS_P2;PMS_P1;PMS_P2;Temp;Humidity;BMP_temperature;BMP_pressure;BME280_temperature;BME280_humidity;BME280_pressure;Samples;Min_cycle;Max_cycle;Signal;HPM_P1;HPM_P2
2022/10/28 00:00:21;;;;;;;6.30;3.60;;;15.40;99.90;;;;;;5053123;28;20180;-56
2022/10/28 00:02:46;;;;;;;5.00;3.77;;;15.30;99.90;;;;;;5046846;28;20553;-59
2022/10/28 00:05:12;;;;;;;7.33;3.83;;;15.20;99.90;;;;;;5053197;28;20210;-58
2022/10/28 00:07:37;;;;;;;7.20;3.90;;;15.20;99.90;;;;;;5053714;28;20188;-57
2022/10/28 00:10:03;;;;;;;5.67;3.83;;;15.20;99.90;;;;;;5053547;28;20176;-59
2022/10/28 00:12:29;;;;;;;6.47;3.90;;;15.20;99.90;;;;;;5053140;28;20218;-58
2022/10/28 00:14:54;;;;;;;6.17;4.20;;;15.20;99.90;;;;;;5053369;28;20685;-57
2022/10/28 00:17:20;;;;;;;5.83;3.80;;;15.20;99.90;;;;;;5053466;28;20209;-58
2022/10/28 00:19:45;;;;;;;5.63;3.47;;;15.10;99.90;;;;;;5051979;28;20184;-58
2022/10/28 00:22:11;;;;;;;4.47;3.47;;;15.20;99.90;;;;;;5053394;28;20181;-58
2022/10/28 00:24:36;;;;;;;4.93;4.03;;;15.10;99.90;;;;;;5052947;28;20231;-59
2022/10/28 00:27:02;;;;;;;6.17;3.80;;;15.10;99.90;;;;;;5053649;28;20556;-58
2022/10/28 00:29:28;;;;;;;6.73;3.87;;;15.00;99.90;;;;;;5053009;28;20229;-59
2022/10/28 00:31:54;;;;;;;4.47;3.70;;;15.10;99.90;;;;;;5052953;28;20283;-60
2022/10/28 00:34:20;;;;;;;5.53;4.10;;;15.20;99.90;;;;;;5052932;28;20644;-56
2022/10/28 00:36:47;;;;;;;6.47;4.10;;;15.10;99.90;;;;;;5048599;28;20182;-59
2022/10/28 00:39:14;;;;;;;6.20;3.80;;;15.20;99.90;;;;;;5053404;28;20288;-59
2022/10/28 00:41:42;;;;;;;5.70;3.50;;;15.10;99.90;;;;;;5052893;28;20183;-59
2022/10/28 00:44:39;;;;;;;5.53;3.67;;;15.10;99.90;;;;;;5052900;28;20225;-60
2022/10/28 00:47:16;;;;;;;4.20;3.47;;;15.00;99.90;;;;;;5052750;28;20179;-59
2022/10/28 00:49:44;;;;;;;5.37;3.67;;;15.00;99.90;;;;;;5053258;28;20181;-59
2022/10/28 00:52:16;;;;;;;5.97;3.47;;;15.00;99.90;;;;;;5052780;28;20171;-58
2022/10/28 00:54:42;;;;;;;6.47;3.50;;;14.90;99.90;;;;;;5053114;28;20175;-57
2022/10/28 00:57:13;;;;;;;5.43;3.43;;;14.80;99.90;;;;;;5048086;28;20184;-58
2022/10/28 00:59:44;;;;;;;9.20;3.97;;;14.60;99.90;;;;;;5042031;28;20265;-56
2022/10/28 01:02:09;;;;;;;4.97;3.60;;;14.50;99.90;;;;;;5051957;28;20209;-57
2022/10/28 01:04:35;;;;;;;5.00;3.43;;;14.60;99.90;;;;;;5052059;28;20199;-58
2022/10/28 01:07:01;;;;;;;7.47;3.77;;;14.60;99.90;;;;;;5049577;28;20175;-57
2022/10/28 01:09:27;;;;;;;5.83;3.50;;;14.60;99.90;;;;;;5052384;28;20255;-57
2022/10/28 01:11:58;;;;;;;5.97;3.50;;;14.60;99.90;;;;;;5052386;28;20210;-57
2022/10/28 01:14:26;;;;;;;5.37;3.47;;;15.70;99.90;;;;;;5047270;28;20215;-58
2022/10/28 01:17:22;;;;;;;5.93;3.50;;;14.60;99.90;;;;;;5050699;28;20207;-59
2022/10/28 01:20:26;;;;;;;7.93;3.60;;;14.60;99.90;;;;;;5051857;28;20205;-57
2022/10/28 01:23:10;;;;;;;3.77;3.30;;;14.60;99.90;;;;;;5052334;28;20187;-59
2022/10/28 01:25:38;;;;;;;5.80;3.90;;;14.40;99.90;;;;;;5052195;28;20564;-56
2022/10/28 01:28:08;;;;;;;7.90;4.00;;;14.40;99.90;;;;;;5051114;28;20191;-59
2022/10/28 01:31:00;;;;;;;6.10;3.40;;;14.40;99.90;;;;;;5051524;28;20183;-59
2022/10/28 01:33:40;;;;;;;4.97;3.37;;;14.40;99.90;;;;;;5052052;28;20568;-56
2022/10/28 01:36:15;;;;;;;5.43;3.63;;;14.40;99.90;;;;;;5051911;28;20171;-59
2022/10/28 01:38:52;;;;;;;6.80;3.73;;;14.30;99.90;;;;;;5051770;28;20198;-58
2022/10/28 01:41:24;;;;;;;6.27;3.20;;;14.40;99.90;;;;;;5052093;28;20679;-57
2022/10/28 01:44:00;;;;;;;4.33;3.10;;;14.40;99.90;;;;;;5051289;28;20202;-59
2022/10/28 01:46:54;;;;;;;3.33;3.00;;;14.40;99.90;;;;;;5052116;28;20171;-58
2022/10/28 01:49:33;;;;;;;4.63;3.50;;;14.40;99.90;;;;;;5050845;28;20203;-59
2022/10/28 01:52:03;;;;;;;4.70;4.20;;;14.40;99.90;;;;;;5051657;28;20166;-58
2022/10/28 01:54:32;;;;;;;8.63;4.97;;;14.50;99.90;;;;;;5051904;28;20224;-59
2022/10/28 01:57:01;;;;;;;4.90;4.43;;;14.40;99.90;;;;;;5051822;28;20259;-59
2022/10/28 01:59:28;;;;;;;7.10;4.50;;;14.50;99.90;;;;;;5051185;28;20182;-56
2022/10/28 02:01:55;;;;;;;7.67;4.63;;;14.50;99.90;;;;;;5051394;28;20179;-57
2022/10/28 02:04:21;;;;;;;5.97;4.20;;;14.50;99.90;;;;;;5051081;28;20210;-59
2022/10/28 02:06:52;;;;;;;5.27;4.10;;;14.50;99.90;;;;;;5050726;28;20553;-57
2022/10/28 02:09:47;;;;;;;5.23;4.00;;;14.50;99.90;;;;;;5051382;28;20257;-57
2022/10/28 02:12:27;;;;;;;5.43;3.90;;;14.40;99.90;;;;;;5051388;28;20171;-55
2022/10/28 02:15:10;;;;;;;8.50;3.60;;;14.40;99.90;;;;;;5051046;28;20183;-59
2022/10/28 02:17:54;;;;;;;9.63;3.90;;;14.30;99.90;;;;;;5051138;28;20211;-59
2022/10/28 02:20:47;;;;;;;5.03;3.77;;;14.40;99.90;;;;;;5051031;28;20189;-58
2022/10/28 02:23:19;;;;;;;6.67;4.93;;;14.40;99.90;;;;;;5044499;28;20252;-59
2022/10/28 02:25:54;;;;;;;7.67;4.67;;;14.40;99.90;;;;;;5047545;28;20233;-57
2022/10/28 02:28:35;;;;;;;6.13;3.80;;;14.60;99.90;;;;;;5051048;28;20213;-58
2022/10/28 02:31:08;;;;;;;7.27;3.53;;;14.20;99.90;;;;;;5042519;28;20177;-58
2022/10/28 02:33:37;;;;;;;4.37;3.50;;;14.20;99.90;;;;;;5050676;28;20167;-58
2022/10/28 02:36:04;;;;;;;5.27;3.57;;;14.20;99.90;;;;;;5050791;28;20596;-57
2022/10/28 02:38:54;;;;;;;6.50;3.57;;;14.20;99.90;;;;;;5049662;28;20599;-56
2022/10/28 02:41:28;;;;;;;5.30;4.13;;;14.10;99.90;;;;;;5050612;28;20703;-59
2022/10/28 02:43:58;;;;;;;8.47;3.77;;;14.20;99.90;;;;;;5050235;28;20202;-59
2022/10/28 02:46:28;;;;;;;4.50;3.73;;;14.10;99.90;;;;;;5051046;28;20181;-59
2022/10/28 02:48:58;;;;;;;4.60;4.20;;;14.00;99.90;;;;;;5050757;28;20190;-55
2022/10/28 02:51:29;;;;;;;5.83;4.60;;;14.00;99.90;;;;;;5051063;28;20179;-59
2022/10/28 02:54:10;;;;;;;6.47;5.20;;;13.90;99.90;;;;;;5050038;28;20187;-59
2022/10/28 02:57:18;;;;;;;8.23;5.30;;;13.90;99.90;;;;;;5049932;28;20528;-55
2022/10/28 02:59:58;;;;;;;7.20;5.63;;;13.90;99.90;;;;;;5029031;28;20237;-58
2022/10/28 03:02:24;;;;;;;5.70;5.10;;;13.90;99.90;;;;;;5032676;28;20184;-59
2022/10/28 03:04:50;;;;;;;7.37;5.60;;;13.90;99.90;;;;;;5031986;28;20209;-59
2022/10/28 03:07:15;;;;;;;7.17;6.43;;;14.00;99.90;;;;;;5032480;28;20172;-58
2022/10/28 03:09:41;;;;;;;10.03;6.30;;;13.90;99.90;;;;;;5032693;28;20179;-57
2022/10/28 03:12:07;;;;;;;7.50;6.27;;;13.90;99.90;;;;;;5032127;28;20172;-60
2022/10/28 03:14:32;;;;;;;7.53;6.30;;;13.90;99.90;;;;;;5032530;28;20281;-59
2022/10/28 03:16:58;;;;;;;6.73;5.00;;;14.00;99.90;;;;;;5031476;28;20684;-59
2022/10/28 03:19:23;;;;;;;7.60;6.30;;;13.90;99.90;;;;;;5032320;28;20215;-59
2022/10/28 03:21:49;;;;;;;9.73;5.87;;;13.90;99.90;;;;;;5032066;28;20196;-59
2022/10/28 03:24:15;;;;;;;7.93;5.30;;;13.90;99.90;;;;;;5031958;28;20371;-59
2022/10/28 03:26:40;;;;;;;8.43;5.60;;;13.90;99.90;;;;;;5032576;28;20183;-60
2022/10/28 03:29:06;;;;;;;5.37;4.63;;;13.80;99.90;;;;;;5031535;28;20754;-59
2022/10/28 03:31:32;;;;;;;5.83;5.20;;;13.80;99.90;;;;;;5032397;28;20266;-58
2022/10/28 03:33:57;;;;;;;5.70;4.90;;;13.80;99.90;;;;;;5031249;28;20183;-59
2022/10/28 03:36:23;;;;;;;8.73;5.00;;;13.80;99.90;;;;;;5052162;28;20664;-58
2022/10/28 03:38:48;;;;;;;6.73;4.33;;;13.90;99.90;;;;;;5054092;28;20191;-59
2022/10/28 03:41:14;;;;;;;4.93;4.43;;;13.90;99.90;;;;;;5055184;28;20178;-59
2022/10/28 03:43:40;;;;;;;4.90;4.30;;;13.90;99.90;;;;;;5054113;28;20286;-59
2022/10/28 03:46:05;;;;;;;6.17;4.37;;;13.90;99.90;;;;;;5054441;28;20175;-61
2022/10/28 03:48:31;;;;;;;6.17;3.93;;;13.90;99.90;;;;;;5053830;28;20231;-60
2022/10/28 03:50:57;;;;;;;6.73;3.43;;;13.80;99.90;;;;;;5045271;28;20176;-59
2022/10/28 03:53:22;;;;;;;5.20;3.63;;;13.80;99.90;;;;;;5048260;28;20172;-59
2022/10/28 03:55:56;;;;;;;3.90;3.50;;;13.70;99.90;;;;;;5051026;28;20259;-59
2022/10/28 03:58:22;;;;;;;5.60;3.50;;;13.70;99.90;;;;;;5052603;28;20261;-57
2022/10/28 04:00:49;;;;;;;5.70;4.90;;;13.70;99.90;;;;;;5052937;28;20183;-58
2022/10/28 04:03:15;;;;;;;7.23;5.63;;;13.70;99.90;;;;;;5053441;28;20183;-58
2022/10/28 04:05:41;;;;;;;8.40;5.60;;;13.60;99.90;;;;;;5053431;28;20324;-56
2022/10/28 04:08:07;;;;;;;6.83;5.60;;;13.50;99.90;;;;;;5049354;28;20199;-57
2022/10/28 04:10:33;;;;;;;12.27;6.67;;;13.50;99.90;;;;;;5053639;28;20175;-58
2022/10/28 04:13:00;;;;;;;8.07;5.60;;;13.60;99.90;;;;;;5052820;28;20194;-57
2022/10/28 04:15:25;;;;;;;7.00;5.80;;;13.60;99.90;;;;;;5052851;28;20274;-57
2022/10/28 04:17:51;;;;;;;6.83;6.00;;;13.70;99.90;;;;;;5053066;28;20294;-58
2022/10/28 04:20:17;;;;;;;7.27;6.30;;;13.60;99.90;;;;;;5053501;28;20179;-56
2022/10/28 04:22:42;;;;;;;7.90;7.10;;;13.40;99.90;;;;;;5053593;28;20183;-56
2022/10/28 04:25:08;;;;;;;7.07;6.37;;;13.40;99.90;;;;;;5049256;28;20261;-56
2022/10/28 04:27:34;;;;;;;6.70;6.07;;;;;;;;;;5053033;28;20210;-57
2022/10/28 04:30:00;;;;;;;7.90;7.10;;;13.90;99.90;;;;;;5052793;28;20521;-59
2022/10/28 04:32:26;;;;;;;8.57;7.17;;;13.10;99.90;;;;;;5053380;28;20171;-60
2022/10/28 04:34:51;;;;;;;6.30;5.30;;;13.40;99.90;;;;;;5052920;28;20183;-59
2022/10/28 04:37:17;;;;;;;8.73;5.63;;;13.40;99.90;;;;;;5053183;28;20201;-56
2022/10/28 04:39:42;;;;;;;5.40;4.90;;;13.40;99.90;;;;;;5053259;28;20182;-60
2022/10/28 04:42:08;;;;;;;8.63;5.20;;;13.40;99.90;;;;;;5052993;28;20711;-58
2022/10/28 04:44:33;;;;;;;6.00;5.40;;;13.50;99.90;;;;;;5053056;28;20675;-60
2022/10/28 04:46:59;;;;;;;6.67;5.53;;;13.50;99.90;;;;;;5052729;28;20631;-59
2022/10/28 04:49:25;;;;;;;5.93;5.33;;;;;;;;;;5052694;28;20214;-58
2022/10/28 04:51:50;;;;;;;6.03;4.87;;;13.50;99.90;;;;;;5052410;28;20240;-58
2022/10/28 04:54:16;;;;;;;5.53;4.90;;;13.60;99.90;;;;;;5051786;28;20185;-57
2022/10/28 04:56:42;;;;;;;7.23;5.70;;;13.60;99.90;;;;;;5051980;28;20179;-58
2022/10/28 04:59:07;;;;;;;5.67;5.00;;;13.50;99.90;;;;;;5050182;28;20728;-58
2022/10/28 05:01:33;;;;;;;8.27;4.57;;;13.40;99.90;;;;;;5052175;28;20179;-58
2022/10/28 05:03:58;;;;;;;6.27;4.40;;;13.50;99.90;;;;;;5052328;28;20207;-58
2022/10/28 05:06:24;;;;;;;5.17;4.10;;;13.50;99.90;;;;;;5052683;28;20240;-59
2022/10/28 05:08:49;;;;;;;6.20;3.90;;;13.40;99.90;;;;;;5051957;28;20207;-58
2022/10/28 05:11:15;;;;;;;6.67;3.80;;;13.40;99.90;;;;;;5052928;28;20232;-58
2022/10/28 05:13:40;;;;;;;4.10;3.53;;;13.90;99.90;;;;;;5051948;28;20198;-60
2022/10/28 05:16:07;;;;;;;3.70;3.40;;;13.20;99.90;;;;;;5052132;28;20179;-57
2022/10/28 05:18:32;;;;;;;7.07;4.20;;;13.20;99.90;;;;;;5052585;28;20591;-59
2022/10/28 05:20:58;;;;;;;6.30;3.70;;;13.20;99.90;;;;;;5052568;28;20178;-57
2022/10/28 05:23:23;;;;;;;8.13;4.07;;;13.30;99.90;;;;;;5051268;28;20671;-58
2022/10/28 05:28:51;;;;;;;7.40;3.70;;;13.30;99.90;;;;;;5026397;28;20230;-60
2022/10/28 05:31:17;;;;;;;4.13;3.63;;;12.60;99.90;;;;;;5030307;28;20172;-60
2022/10/28 05:33:43;;;;;;;7.23;3.93;;;13.20;99.90;;;;;;5036011;28;20247;-59
2022/10/28 05:36:09;;;;;;;7.13;3.67;;;13.30;99.90;;;;;;5045935;28;20351;-59
2022/10/28 05:38:34;;;;;;;7.17;3.50;;;13.30;99.90;;;;;;5024972;28;20218;-58
2022/10/28 05:41:00;;;;;;;3.83;3.40;;;13.30;99.90;;;;;;5037855;28;20281;-59
2022/10/28 05:43:26;;;;;;;7.50;3.90;;;13.10;99.90;;;;;;5031018;28;20266;-60
2022/10/28 05:45:56;;;;;;;7.30;4.20;;;13.10;99.90;;;;;;5030129;28;20258;-57
2022/10/28 05:48:22;;;;;;;7.80;5.27;;;13.30;99.90;;;;;;5038371;28;20514;-58
2022/10/28 05:50:48;;;;;;;8.83;5.70;;;;;;;;;;5042679;28;20203;-59
2022/10/28 05:53:14;;;;;;;7.60;5.07;;;13.00;99.90;;;;;;5029839;28;20203;-59
2022/10/28 05:55:40;;;;;;;7.47;4.70;;;13.00;99.90;;;;;;5042951;28;20245;-57
2022/10/28 05:58:05;;;;;;;6.37;5.03;;;13.40;99.90;;;;;;5014345;28;20180;-58
2022/10/28 06:00:31;;;;;;;5.07;4.50;;;13.10;99.90;;;;;;5049495;28;20179;-60
2022/10/28 06:03:15;;;;;;;7.33;5.40;;;13.20;99.90;;;;;;5047971;28;20656;-60
2022/10/28 06:05:43;;;;;;;4.57;4.10;;;13.20;99.90;;;;;;5044664;28;20209;-59
2022/10/28 06:08:10;;;;;;;5.63;4.57;;;13.10;99.90;;;;;;5051300;28;20631;-60
2022/10/28 06:10:36;;;;;;;5.10;4.50;;;;;;;;;;5051248;28;20171;-59
2022/10/28 06:13:02;;;;;;;5.57;4.40;;;13.30;99.90;;;;;;5047166;28;20183;-59
2022/10/28 06:15:28;;;;;;;8.10;5.23;;;13.00;99.90;;;;;;5030699;28;20194;-60
2022/10/28 06:17:54;;;;;;;6.60;4.80;;;;;;;;;;5031394;28;20180;-60
2022/10/28 06:20:19;;;;;;;6.70;6.10;;;13.40;99.90;;;;;;5031058;28;20226;-60
2022/10/28 06:22:48;;;;;;;13.87;12.57;;;;;;;;;;5031174;28;20188;-56
2022/10/28 06:25:14;;;;;;;55.33;46.20;;;;;;;;;;5030591;28;20333;-60
2022/10/28 06:27:40;;;;;;;13.20;10.27;;;;;;;;;;5029865;28;20187;-60
2022/10/28 06:30:07;;;;;;;7.00;5.50;;;;;;;;;;5030358;28;20688;-59
2022/10/28 06:32:33;;;;;;;7.93;6.40;;;;;;;;;;5029777;28;20190;-60
2022/10/28 06:34:58;;;;;;;4.00;3.57;;;13.70;99.90;;;;;;5029344;28;20253;-60
2022/10/28 06:37:24;;;;;;;3.87;3.40;;;13.60;99.90;;;;;;5030247;28;20221;-59
2022/10/28 06:39:53;;;;;;;3.50;3.03;;;13.40;99.90;;;;;;5047286;28;20175;-58
2022/10/28 06:42:19;;;;;;;4.10;3.60;;;13.50;99.90;;;;;;5050572;28;20206;-57
2022/10/28 06:44:45;;;;;;;4.73;3.50;;;13.60;99.90;;;;;;5050662;28;20222;-60
2022/10/28 06:47:12;;;;;;;4.73;4.33;;;13.70;99.90;;;;;;5050120;28;20493;-59
2022/10/28 06:49:38;;;;;;;5.17;4.77;;;13.80;99.90;;;;;;5050919;28;20218;-60
2022/10/28 06:52:03;;;;;;;5.13;4.57;;;13.80;99.90;;;;;;5050722;28;20795;-59
2022/10/28 06:54:29;;;;;;;5.60;5.00;;;13.70;99.90;;;;;;5050674;28;20179;-58
2022/10/28 06:56:55;;;;;;;5.87;5.27;;;;;;;;;;5050604;28;20191;-60
2022/10/28 06:59:20;;;;;;;7.60;6.37;;;13.90;99.90;;;;;;5050731;28;20544;-59
2022/10/28 07:01:46;;;;;;;6.13;5.53;;;13.90;99.90;;;;;;5050754;28;20166;-60
2022/10/28 07:04:12;;;;;;;5.27;4.77;;;14.00;99.90;;;;;;5050362;28;20253;-60
2022/10/28 07:06:38;;;;;;;5.43;4.93;;;14.10;99.90;;;;;;5050700;28;20193;-60
2022/10/28 07:09:04;;;;;;;5.87;5.27;;;14.50;99.90;;;;;;5050697;28;20221;-60
2022/10/28 07:11:30;;;;;;;5.53;5.03;;;15.00;99.90;;;;;;5050681;28;20170;-60
2022/10/28 07:13:55;;;;;;;7.40;5.00;;;15.00;99.90;;;;;;5050345;28;20178;-60
2022/10/28 07:16:21;;;;;;;6.23;4.70;;;15.40;99.90;;;;;;5050594;28;20193;-60
2022/10/28 07:18:47;;;;;;;5.20;4.70;;;15.70;99.90;;;;;;5050669;28;20178;-60
2022/10/28 07:21:13;;;;;;;5.10;4.60;;;16.10;99.90;;;;;;5050661;28;20194;-60
2022/10/28 07:23:39;;;;;;;4.67;3.97;;;16.80;99.90;;;;;;5050259;28;20179;-60
2022/10/28 07:26:04;;;;;;;3.90;3.60;;;17.60;99.90;;;;;;5050568;28;20224;-60
2022/10/28 07:28:30;;;;;;;3.10;2.90;;;18.30;99.90;;;;;;5050256;28;20199;-60
2022/10/28 07:31:00;;;;;;;3.97;3.47;;;19.20;99.90;;;;;;5050485;28;20521;-60
2022/10/28 07:33:26;;;;;;;6.50;3.13;;;20.20;99.90;;;;;;5050020;28;20576;-60
2022/10/28 07:35:51;;;;;;;3.00;2.80;;;21.10;99.90;;;;;;5050472;28;20206;-61
2022/10/28 07:38:17;;;;;;;2.97;2.55;;;22.10;99.90;;;;;;5050415;28;20645;-61
2022/10/28 07:40:42;;;;;;;3.58;2.60;;;23.10;99.90;;;;;;5050178;28;20241;-61
2022/10/28 07:43:08;;;;;;;4.03;2.88;;;24.00;99.90;;;;;;5050102;28;20887;-61
2022/10/28 07:45:34;;;;;;;4.13;2.90;;;24.70;99.90;;;;;;5045712;28;20203;-61
2022/10/28 07:48:00;;;;;;;2.75;2.47;;;25.20;99.30;;;;;;5032625;28;20683;-61
2022/10/28 07:50:26;;;;;;;2.90;2.58;;;25.80;98.20;;;;;;5053825;28;20191;-61
2022/10/28 07:52:51;;;;;;;2.97;2.22;;;26.20;96.90;;;;;;5054077;28;20540;-60
2022/10/28 07:55:17;;;;;;;3.53;2.65;;;26.50;95.70;;;;;;5053425;28;20253;-60
2022/10/28 07:57:43;;;;;;;4.18;2.50;;;26.60;95.30;;;;;;5054053;28;20167;-61
2022/10/28 08:00:09;;;;;;;3.60;2.47;;;26.90;95.30;;;;;;5053867;28;20218;-61
2022/10/28 08:02:35;;;;;;;3.63;2.28;;;27.50;94.30;;;;;;5053906;28;20191;-61
2022/10/28 08:05:01;;;;;;;2.75;2.13;;;28.00;93.30;;;;;;5053502;28;20268;-61
2022/10/28 08:07:26;;;;;;;2.20;2.00;;;28.70;92.50;;;;;;5053488;28;20237;-61
2022/10/28 08:09:52;;;;;;;4.10;1.92;;;29.60;91.10;;;;;;5053603;28;20179;-61
2022/10/28 08:12:18;;;;;;;2.25;1.85;;;30.40;88.80;;;;;;5053579;28;20229;-59
2022/10/28 08:14:43;;;;;;;3.90;2.10;;;30.70;84.70;;;;;;5053292;28;20187;-59
2022/10/28 08:17:09;;;;;;;2.03;1.75;;;30.50;83.50;;;;;;5053462;28;20191;-59
2022/10/28 08:19:35;;;;;;;4.30;2.20;;;31.40;82.20;;;;;;5053586;28;20183;-60
2022/10/28 08:22:01;;;;;;;2.75;2.25;;;31.70;80.60;;;;;;5053457;28;20317;-59
2022/10/28 08:24:27;;;;;;;3.67;2.10;;;31.90;79.30;;;;;;5052878;28;20348;-59
2022/10/28 08:26:52;;;;;;;2.50;2.30;;;31.90;78.40;;;;;;5053076;28;20723;-59
2022/10/28 08:29:18;;;;;;;3.47;2.80;;;32.10;78.60;;;;;;5053454;28;20278;-58
2022/10/28 08:31:43;;;;;;;2.20;2.10;;;32.50;77.10;;;;;;5053076;28;20167;-59
2022/10/28 08:34:09;;;;;;;2.25;2.10;;;32.80;76.70;;;;;;5052939;28;20199;-58
2022/10/28 08:36:35;;;;;;;2.78;2.50;;;33.10;75.10;;;;;;5053025;28;20210;-59
2022/10/28 08:39:01;;;;;;;3.50;2.42;;;33.40;73.10;;;;;;5052844;28;20175;-59
2022/10/28 08:41:45;;;;;;;4.60;2.03;;;33.60;71.90;;;;;;5052893;28;20229;-59
2022/10/28 08:44:14;;;;;;;3.95;2.40;;;34.00;70.50;;;;;;5052573;28;20408;-58
2022/10/28 08:46:45;;;;;;;2.60;2.10;;;34.50;68.60;;;;;;5052833;28;20191;-59
2022/10/28 08:49:14;;;;;;;2.45;1.98;;;34.80;67.50;;;;;;5052893;28;20191;-60
2022/10/28 08:51:42;;;;;;;2.33;2.17;;;35.30;66.70;;;;;;5052659;28;20167;-59
2022/10/28 08:54:16;;;;;;;2.75;2.25;;;36.20;64.90;;;;;;5052313;28;20171;-59
2022/10/28 08:56:46;;;;;;;2.65;2.05;;;36.90;62.50;;;;;;5052767;28;20223;-60
2022/10/28 08:59:20;;;;;;;3.92;2.80;;;37.70;59.00;;;;;;5052436;28;20175;-60
2022/10/28 09:01:53;;;;;;;2.72;2.53;;;37.70;59.40;;;;;;5052729;28;20628;-59
2022/10/28 09:04:44;;;;;;;2.50;2.33;;;38.20;57.80;;;;;;5052045;28;20202;-58
2022/10/28 09:07:17;;;;;;;3.40;2.28;;;38.70;57.20;;;;;;5052654;28;20216;-60
2022/10/28 09:09:43;;;;;;;3.10;2.33;;;39.30;56.20;;;;;;5052415;28;20189;-59
2022/10/28 09:12:27;;;;;;;5.50;2.95;;;39.80;55.00;;;;;;5052549;28;20175;-60
2022/10/28 09:15:14;;;;;;;2.65;2.30;;;40.90;71.00;;;;;;5052392;28;20171;-60
2022/10/28 09:17:56;;;;;;;3.80;2.53;;;41.50;55.40;;;;;;5052612;28;20213;-59
2022/10/28 09:20:28;;;;;;;3.00;2.70;;;41.50;51.20;;;;;;5052157;28;20167;-59
2022/10/28 09:22:57;;;;;;;3.70;2.65;;;41.90;49.40;;;;;;5053038;28;20627;-59
2022/10/28 09:26:01;;;;;;;5.43;2.65;;;41.60;49.20;;;;;;5052585;28;20343;-59
2022/10/28 09:28:51;;;;;;;4.20;2.40;;;41.50;48.80;;;;;;5052866;28;20189;-60
2022/10/28 09:31:30;;;;;;;6.28;3.10;;;42.50;48.40;;;;;;5052810;28;20194;-60
2022/10/28 09:34:12;;;;;;;2.85;2.58;;;43.90;59.80;;;;;;5052672;28;20166;-60
2022/10/28 09:36:42;;;;;;;3.40;2.80;;;43.20;51.80;;;;;;5052762;28;20240;-60
2022/10/28 09:39:18;;;;;;;4.68;2.90;;;43.20;45.40;;;;;;5052606;28;20225;-58
2022/10/28 09:41:46;;;;;;;2.47;2.38;;;43.50;45.00;;;;;;5052443;28;20166;-59
2022/10/28 09:44:30;;;;;;;3.30;3.10;;;44.30;44.40;;;;;;5052305;28;20216;-60
2022/10/28 09:46:58;;;;;;;3.13;2.80;;;44.80;43.80;;;;;;5052648;28;20230;-60
2022/10/28 09:49:33;;;;;;;7.60;3.38;;;45.00;43.10;;;;;;5052587;28;20192;-60
2022/10/28 09:52:07;;;;;;;3.90;3.60;;;45.30;42.10;;;;;;5051326;28;20200;-60
2022/10/28 09:54:41;;;;;;;3.45;3.15;;;45.60;40.80;;;;;;5051721;28;20169;-60
2022/10/28 09:57:07;;;;;;;2.67;2.47;;;45.60;41.40;;;;;;5052313;28;20189;-60
2022/10/28 09:59:33;;;;;;;6.50;3.00;;;45.60;41.70;;;;;;5052519;28;20536;-60
2022/10/28 10:01:59;;;;;;;4.30;2.88;;;45.70;41.50;;;;;;5050077;28;20702;-60
2022/10/28 10:04:27;;;;;;;2.70;2.50;;;45.80;41.10;;;;;;5051928;28;20171;-60
2022/10/28 10:07:02;;;;;;;2.97;2.78;;;46.10;41.10;;;;;;5051987;28;20190;-60
2022/10/28 10:09:31;;;;;;;3.13;2.92;;;46.80;40.30;;;;;;5051631;28;20174;-60
2022/10/28 10:12:08;;;;;;;3.35;2.80;;;47.10;39.80;;;;;;5050948;28;20581;-60
2022/10/28 10:14:46;;;;;;;3.10;2.78;;;47.30;39.10;;;;;;5050992;28;20198;-60
2022/10/28 10:17:34;;;;;;;3.10;2.80;;;47.70;38.70;;;;;;5050957;28;20186;-60
2022/10/28 10:20:12;;;;;;;2.90;2.70;;;48.30;36.90;;;;;;5051237;28;20183;-60
2022/10/28 10:22:41;;;;;;;4.60;3.10;;;49.00;36.10;;;;;;5051156;28;20159;-60
2022/10/28 10:25:18;;;;;;;2.60;2.40;;;49.40;35.10;;;;;;5050828;28;20163;-60
2022/10/28 10:27:52;;;;;;;5.80;2.78;;;49.70;34.90;;;;;;5050908;28;20190;-60
2022/10/28 10:30:24;;;;;;;2.80;2.53;;;49.60;33.60;;;;;;5051033;28;20174;-60
2022/10/28 10:32:51;;;;;;;3.15;2.72;;;48.40;34.70;;;;;;5051136;28;20171;-60
2022/10/28 10:35:23;;;;;;;2.65;2.45;;;47.80;35.40;;;;;;5050405;28;20198;-60
2022/10/28 10:37:50;;;;;;;3.67;2.50;;;48.30;35.10;;;;;;5051039;28;20178;-60
2022/10/28 10:40:26;;;;;;;3.65;2.38;;;48.90;33.80;;;;;;5050788;28;20171;-60
2022/10/28 10:42:52;;;;;;;6.88;2.90;;;48.40;34.40;;;;;;5050994;28;20213;-60
2022/10/28 10:45:25;;;;;;;2.47;2.25;;;48.50;33.50;;;;;;5050362;28;20244;-60
2022/10/28 10:48:31;;;;;;;8.27;3.90;;;48.60;33.90;;;;;;5050908;28;20175;-60
2022/10/28 10:50:57;;;;;;;3.55;2.83;;;48.60;33.30;;;;;;4950417;29;20673;-60
2022/10/28 10:53:24;;;;;;;3.58;2.20;;;48.20;33.30;;;;;;4950332;29;20208;-60
2022/10/28 10:55:56;;;;;;;2.60;2.35;;;47.60;34.10;;;;;;4950252;29;20214;-59
2022/10/28 10:58:24;;;;;;;6.75;2.83;;;46.70;34.80;;;;;;4950602;29;20241;-60
2022/10/28 11:00:52;;;;;;;5.00;3.00;;;46.00;35.00;;;;;;4950327;29;20202;-60
2022/10/28 11:03:21;;;;;;;4.05;2.60;;;44.90;36.10;;;;;;4950276;29;20185;-60
2022/10/28 11:05:50;;;;;;;5.35;2.42;;;45.10;36.70;;;;;;4950312;29;20241;-60
2022/10/28 11:08:31;;;;;;;4.90;2.53;;;45.60;35.70;;;;;;4950522;29;20170;-60
2022/10/28 11:11:05;;;;;;;2.90;2.55;;;46.00;35.20;;;;;;4950432;29;20201;-60
2022/10/28 11:13:33;;;;;;;3.28;2.50;;;46.70;35.10;;;;;;4950177;29;20177;-60
2022/10/28 11:16:05;;;;;;;3.20;2.45;;;46.70;35.10;;;;;;4950219;29;20345;-60
2022/10/28 11:18:40;;;;;;;4.10;2.60;;;47.20;35.00;;;;;;4950324;29;20557;-60
2022/10/28 11:21:44;;;;;;;2.92;2.30;;;47.60;33.80;;;;;;4951256;28;20765;-60
2022/10/28 11:24:22;;;;;;;5.22;3.15;;;47.80;34.00;;;;;;4972094;28;20587;-60
2022/10/28 11:27:22;;;;;;;3.20;2.65;;;47.80;33.10;;;;;;5080985;22;20320;-62
2022/10/28 11:29:48;;;;;;;4.90;2.65;;;47.90;32.80;;;;;;5089813;28;20534;-62
2022/10/28 11:32:41;;;;;;;4.65;2.70;;;47.60;32.40;;;;;;5093734;28;20184;-63
2022/10/28 11:35:34;;;;;;;5.25;2.65;;;47.50;33.00;;;;;;5093792;28;20205;-62
2022/10/28 11:38:06;;;;;;;4.95;2.63;;;46.90;34.10;;;;;;5103952;28;20204;-62
2022/10/28 11:41:01;;;;;;;2.60;2.40;;;47.00;34.10;;;;;;5094851;28;20187;-62
2022/10/28 11:43:42;;;;;;;4.82;2.78;;;46.60;34.00;;;;;;5097907;28;20176;-62
2022/10/28 11:46:41;;;;;;;3.65;2.80;;;45.30;35.00;;;;;;5106411;28;20220;-61
2022/10/28 11:49:46;;;;;;;4.88;3.13;;;43.90;35.60;;;;;;5032229;28;20179;-60
2022/10/28 11:52:21;;;;;;;3.28;3.08;;;42.30;37.80;;;;;;5032158;28;20608;-61
2022/10/28 11:54:55;;;;;;;4.57;3.65;;;41.20;39.00;;;;;;5031920;28;20195;-61
2022/10/28 11:57:47;;;;;;;3.10;2.80;;;40.30;40.10;;;;;;5031932;28;20242;-60
2022/10/28 12:00:40;;;;;;;3.85;3.20;;;39.70;41.10;;;;;;5031950;28;20178;-61
2022/10/28 12:03:29;;;;;;;3.00;2.70;;;39.50;41.50;;;;;;5012750;28;20202;-60
2022/10/28 12:06:06;;;;;;;3.60;2.88;;;40.20;42.60;;;;;;5012140;28;20672;-62
2022/10/28 12:08:54;;;;;;;4.63;3.20;;;41.30;41.90;;;;;;5012265;28;20202;-61
2022/10/28 12:11:48;;;;;;;6.28;3.15;;;42.20;39.70;;;;;;5012285;28;20187;-63
2022/10/28 12:14:28;;;;;;;3.30;2.90;;;42.80;39.00;;;;;;5010939;28;20701;-61
2022/10/28 12:17:12;;;;;;;5.82;3.28;;;42.60;39.40;;;;;;5010575;28;20200;-61
2022/10/28 12:19:45;;;;;;;3.63;3.33;;;41.80;39.30;;;;;;5010779;28;20278;-62
2022/10/28 12:22:31;;;;;;;2.97;2.72;;;38.40;46.60;;;;;;5011115;28;20196;-61
2022/10/28 12:25:02;;;;;;;3.88;2.75;;;38.50;45.40;;;;;;5006217;28;20306;-62
2022/10/28 12:27:33;;;;;;;3.45;2.70;;;37.10;41.70;;;;;;5093814;28;20213;-60
2022/10/28 12:30:20;;;;;;;3.45;2.60;;;36.10;41.90;;;;;;5075788;28;20181;-61
2022/10/28 12:32:50;;;;;;;3.30;3.00;;;35.30;43.10;;;;;;5093549;28;20276;-59
2022/10/28 12:35:36;;;;;;;4.18;2.90;;;34.40;45.00;;;;;;5098260;28;20208;-60
2022/10/28 12:38:10;;;;;;;4.60;3.53;;;32.90;48.70;;;;;;5093937;28;20218;-60
2022/10/28 12:40:46;;;;;;;6.70;4.07;;;32.80;74.00;;;;;;5093648;28;20170;-60
2022/10/28 12:43:33;;;;;;;5.00;4.20;;;32.60;52.70;;;;;;5093716;28;20166;-63
2022/10/28 12:45:59;;;;;;;6.93;3.92;;;32.10;55.00;;;;;;5093513;28;20219;-62
2022/10/28 12:48:40;;;;;;;5.75;4.35;;;31.80;56.80;;;;;;5093793;28;20181;-61
2022/10/28 12:51:18;;;;;;;7.68;4.50;;;31.00;59.20;;;;;;5093384;28;20669;-61
2022/10/28 12:53:54;;;;;;;5.72;5.13;;;30.60;60.30;;;;;;5093394;28;20227;-62
2022/10/28 12:56:51;;;;;;;5.97;4.53;;;30.60;61.80;;;;;;5094296;28;20190;-62
2022/10/28 12:59:40;;;;;;;6.28;4.95;;;30.20;65.60;;;;;;5093621;28;20200;-60
2022/10/28 13:02:15;;;;;;;5.88;5.13;;;31.00;80.40;;;;;;5093141;28;20162;-62
2022/10/28 13:04:41;;;;;;;5.25;4.72;;;30.90;81.00;;;;;;5075357;28;20173;-61
2022/10/28 13:07:25;;;;;;;5.88;5.28;;;31.00;61.40;;;;;;5092968;28;20271;-59
2022/10/28 13:10:09;;;;;;;6.18;5.57;;;31.00;63.90;;;;;;5093282;28;20178;-62
2022/10/28 13:12:49;;;;;;;6.30;4.68;;;30.80;64.80;;;;;;5092924;28;20177;-61
2022/10/28 13:15:36;;;;;;;5.93;5.00;;;30.90;64.20;;;;;;5092930;28;20197;-62